This is the latest recevied weather packets stored in our database for station/object K7YVO. If no packets are shown the sender has not sent any weather packets the latest 10 day(s).
| Time | Temp. | Humidity | Pressure | Rain* | Wind** | Luminosity | Snow |
|---|---|---|---|---|---|---|---|
| 1777504644 | 20° C | 48% | 1022.5 hPa | 0 mm | - | 500 W/m² | - |
| 1777504341 | 20° C | 48% | 1022.6 hPa | 0 mm | - | 513 W/m² | - |
| 1777504035 | 20.56° C | 47% | 1022.8 hPa | 0 mm | - | 525 W/m² | - |
| 1777503733 | 20.56° C | 48% | 1022.8 hPa | 0 mm | - | 535 W/m² | - |
| 1777503429 | 21.11° C | 46% | 1022.9 hPa | 0 mm | - | 543 W/m² | - |
| 1777503125 | 20.56° C | 47% | 1023.1 hPa | 0 mm | - | 558 W/m² | - |
| 1777502823 | 20.56° C | 49% | 1023.2 hPa | 0 mm | - | 565 W/m² | - |
| 1777502520 | 19.44° C | 50% | 1023.1 hPa | 0 mm | - | 575 W/m² | - |
| 1777502216 | 19.44° C | 49% | 1023.1 hPa | 0 mm | - | 588 W/m² | - |
| 1777501914 | 18.89° C | 51% | 1023.3 hPa | 0 mm | - | 595 W/m² | - |
| 1777501611 | 18.89° C | 50% | 1023.2 hPa | 0 mm | - | 608 W/m² | - |
| 1777501307 | 18.89° C | 51% | 1023.4 hPa | 0 mm | - | 609 W/m² | - |
| 1777501005 | 19.44° C | 50% | 1023.4 hPa | 0 mm | - | 621 W/m² | - |
| 1777500703 | 19.44° C | 51% | 1023.5 hPa | 0 mm | - | 633 W/m² | - |
| 1777500399 | 18.33° C | 51% | 1023.7 hPa | 0 mm | - | 640 W/m² | - |
| 1777500095 | 19.44° C | 50% | 1023.5 hPa | 0 mm | - | 643 W/m² | - |
| 1777499793 | 20° C | 49% | 1023.6 hPa | 0 mm | - | 654 W/m² | - |
| 1777499489 | 20.56° C | 47% | 1023.5 hPa | 0 mm | - | 659 W/m² | - |
| 1777499187 | 18.89° C | 50% | 1023.7 hPa | 0 mm | - | 671 W/m² | - |
| 1777498884 | 18.89° C | 51% | 1023.7 hPa | 0 mm | - | 672 W/m² | - |
| 1777498580 | 18.89° C | 50% | 1023.7 hPa | 0 mm | - | 680 W/m² | - |
| 1777498276 | 18.89° C | 51% | 1023.7 hPa | 0 mm | - | 687 W/m² | - |
| 1777497975 | 18.33° C | 51% | 1023.7 hPa | 0 mm | - | 691 W/m² | - |
| 1777497670 | 17.78° C | 52% | 1023.6 hPa | 0 mm | - | 696 W/m² | - |
| 1777497367 | 18.33° C | 51% | 1023.7 hPa | 0 mm | - | 702 W/m² | - |
* Rain latest hour (hover to see other rain measurements)
** Current wind speed in m/s (hover to see current wind gust speed)